sensor_id;sensor_type;location;lat;lon;timestamp;temperature;humidity
52675;DHT22;38569;52.722;6.440;2022-10-04T00:00:49;12.30;99.90
52675;DHT22;38569;52.722;6.440;2022-10-04T00:03:48;12.30;99.90
52675;DHT22;38569;52.722;6.440;2022-10-04T00:06:18;12.30;99.90
52675;DHT22;38569;52.722;6.440;2022-10-04T00:09:06;12.30;99.90
52675;DHT22;38569;52.722;6.440;2022-10-04T00:11:37;12.30;99.90
52675;DHT22;38569;52.722;6.440;2022-10-04T00:14:13;12.30;99.90
52675;DHT22;38569;52.722;6.440;2022-10-04T00:16:41;12.30;99.90
52675;DHT22;38569;52.722;6.440;2022-10-04T00:24:28;12.30;99.90
52675;DHT22;38569;52.722;6.440;2022-10-04T00:27:23;12.40;99.90
52675;DHT22;38569;52.722;6.440;2022-10-04T00:32:45;12.40;99.90
52675;DHT22;38569;52.722;6.440;2022-10-04T00:37:56;12.50;99.90
52675;DHT22;38569;52.722;6.440;2022-10-04T00:40:28;12.40;99.90
52675;DHT22;38569;52.722;6.440;2022-10-04T00:42:58;12.50;99.90
52675;DHT22;38569;52.722;6.440;2022-10-04T00:45:32;12.50;99.90
52675;DHT22;38569;52.722;6.440;2022-10-04T00:54:13;12.40;99.90
52675;DHT22;38569;52.722;6.440;2022-10-04T00:59:27;12.50;99.90
52675;DHT22;38569;52.722;6.440;2022-10-04T01:07:02;12.50;99.90
52675;DHT22;38569;52.722;6.440;2022-10-04T01:09:31;12.50;99.90
52675;DHT22;38569;52.722;6.440;2022-10-04T01:12:03;12.50;99.90
52675;DHT22;38569;52.722;6.440;2022-10-04T01:14:44;12.50;99.90
52675;DHT22;38569;52.722;6.440;2022-10-04T01:17:12;12.50;99.90
52675;DHT22;38569;52.722;6.440;2022-10-04T01:19:48;12.40;99.90
52675;DHT22;38569;52.722;6.440;2022-10-04T01:22:34;12.40;99.90
52675;DHT22;38569;52.722;6.440;2022-10-04T01:25:01;12.30;99.90
52675;DHT22;38569;52.722;6.440;2022-10-04T01:27:36;12.30;99.90
52675;DHT22;38569;52.722;6.440;2022-10-04T01:30:15;12.30;99.90
52675;DHT22;38569;52.722;6.440;2022-10-04T01:32:41;12.20;99.90
52675;DHT22;38569;52.722;6.440;2022-10-04T01:35:12;12.20;99.90
52675;DHT22;38569;52.722;6.440;2022-10-04T01:37:38;12.20;99.90
52675;DHT22;38569;52.722;6.440;2022-10-04T01:40:07;12.20;99.90
52675;DHT22;38569;52.722;6.440;2022-10-04T01:47:55;12.30;99.90
52675;DHT22;38569;52.722;6.440;2022-10-04T01:50:29;12.30;99.90
52675;DHT22;38569;52.722;6.440;2022-10-04T01:55:38;12.30;99.90
52675;DHT22;38569;52.722;6.440;2022-10-04T01:58:22;12.20;99.90
52675;DHT22;38569;52.722;6.440;2022-10-04T02:01:00;12.30;99.90
52675;DHT22;38569;52.722;6.440;2022-10-04T02:03:34;12.20;99.90
52675;DHT22;38569;52.722;6.440;2022-10-04T02:06:04;12.20;99.90
52675;DHT22;38569;52.722;6.440;2022-10-04T02:08:34;12.10;99.90
52675;DHT22;38569;52.722;6.440;2022-10-04T02:11:03;12.10;99.90
52675;DHT22;38569;52.722;6.440;2022-10-04T02:13:36;12.10;99.90
52675;DHT22;38569;52.722;6.440;2022-10-04T02:16:08;12.10;99.90
52675;DHT22;38569;52.722;6.440;2022-10-04T02:18:36;12.00;99.90
52675;DHT22;38569;52.722;6.440;2022-10-04T02:21:04;11.90;99.90
52675;DHT22;38569;52.722;6.440;2022-10-04T02:23:31;11.80;99.90
52675;DHT22;38569;52.722;6.440;2022-10-04T02:25:57;11.80;99.90
52675;DHT22;38569;52.722;6.440;2022-10-04T02:28:23;11.70;99.90
52675;DHT22;38569;52.722;6.440;2022-10-04T02:30:51;11.60;99.90
52675;DHT22;38569;52.722;6.440;2022-10-04T02:33:41;11.50;99.90
52675;DHT22;38569;52.722;6.440;2022-10-04T02:36:09;11.40;99.90
52675;DHT22;38569;52.722;6.440;2022-10-04T02:38:48;11.30;99.90
52675;DHT22;38569;52.722;6.440;2022-10-04T02:46:32;11.10;99.90
52675;DHT22;38569;52.722;6.440;2022-10-04T02:49:04;11.00;99.90
52675;DHT22;38569;52.722;6.440;2022-10-04T02:51:39;11.00;99.90
52675;DHT22;38569;52.722;6.440;2022-10-04T02:54:30;10.90;99.90
52675;DHT22;38569;52.722;6.440;2022-10-04T02:56:58;10.90;99.90
52675;DHT22;38569;52.722;6.440;2022-10-04T02:59:26;10.80;99.90
52675;DHT22;38569;52.722;6.440;2022-10-04T03:01:55;10.80;99.90
52675;DHT22;38569;52.722;6.440;2022-10-04T03:04:33;10.80;99.90
52675;DHT22;38569;52.722;6.440;2022-10-04T03:07:05;10.80;99.90
52675;DHT22;38569;52.722;6.440;2022-10-04T03:09:31;10.80;99.90
52675;DHT22;38569;52.722;6.440;2022-10-04T03:11:59;10.80;99.90
52675;DHT22;38569;52.722;6.440;2022-10-04T03:14:27;10.70;99.90
52675;DHT22;38569;52.722;6.440;2022-10-04T03:16:54;10.70;99.90
52675;DHT22;38569;52.722;6.440;2022-10-04T03:19:23;10.60;99.90
52675;DHT22;38569;52.722;6.440;2022-10-04T03:21:53;10.60;99.90
52675;DHT22;38569;52.722;6.440;2022-10-04T03:24:23;10.60;99.90
52675;DHT22;38569;52.722;6.440;2022-10-04T03:26:54;10.60;99.90
52675;DHT22;38569;52.722;6.440;2022-10-04T03:29:23;10.60;99.90
52675;DHT22;38569;52.722;6.440;2022-10-04T03:31:51;10.60;99.90
52675;DHT22;38569;52.722;6.440;2022-10-04T03:34:27;10.70;99.90
52675;DHT22;38569;52.722;6.440;2022-10-04T03:36:55;10.60;99.90
52675;DHT22;38569;52.722;6.440;2022-10-04T03:39:42;10.60;99.90
52675;DHT22;38569;52.722;6.440;2022-10-04T03:42:18;10.50;99.90
52675;DHT22;38569;52.722;6.440;2022-10-04T03:44:52;10.50;99.90
52675;DHT22;38569;52.722;6.440;2022-10-04T03:47:30;10.40;99.90
52675;DHT22;38569;52.722;6.440;2022-10-04T03:50:02;10.20;99.90
52675;DHT22;38569;52.722;6.440;2022-10-04T03:52:34;10.20;99.90
52675;DHT22;38569;52.722;6.440;2022-10-04T03:55:05;10.10;99.90
52675;DHT22;38569;52.722;6.440;2022-10-04T03:57:32;10.00;99.90
52675;DHT22;38569;52.722;6.440;2022-10-04T03:59:59;9.90;99.90
52675;DHT22;38569;52.722;6.440;2022-10-04T04:05:18;9.80;99.90
52675;DHT22;38569;52.722;6.440;2022-10-04T04:07:48;9.80;99.90
52675;DHT22;38569;52.722;6.440;2022-10-04T04:10:21;9.80;99.90
52675;DHT22;38569;52.722;6.440;2022-10-04T04:12:58;9.80;99.90
52675;DHT22;38569;52.722;6.440;2022-10-04T04:15:31;9.70;99.90
52675;DHT22;38569;52.722;6.440;2022-10-04T04:18:20;9.60;99.90
52675;DHT22;38569;52.722;6.440;2022-10-04T04:20:48;9.70;99.90
52675;DHT22;38569;52.722;6.440;2022-10-04T04:25:42;9.70;99.90
52675;DHT22;38569;52.722;6.440;2022-10-04T04:28:29;9.70;99.90
52675;DHT22;38569;52.722;6.440;2022-10-04T04:31:05;9.80;99.90
52675;DHT22;38569;52.722;6.440;2022-10-04T04:33:48;9.80;99.90
52675;DHT22;38569;52.722;6.440;2022-10-04T04:36:15;9.80;99.90
52675;DHT22;38569;52.722;6.440;2022-10-04T04:38:42;9.80;99.90
52675;DHT22;38569;52.722;6.440;2022-10-04T04:41:29;9.90;99.90
52675;DHT22;38569;52.722;6.440;2022-10-04T04:43:56;9.90;99.90
52675;DHT22;38569;52.722;6.440;2022-10-04T04:46:23;9.90;99.90
52675;DHT22;38569;52.722;6.440;2022-10-04T04:49:03;9.90;99.90
52675;DHT22;38569;52.722;6.440;2022-10-04T04:51:31;9.90;99.90
52675;DHT22;38569;52.722;6.440;2022-10-04T04:53:59;9.90;99.90
52675;DHT22;38569;52.722;6.440;2022-10-04T04:56:28;9.90;99.90
52675;DHT22;38569;52.722;6.440;2022-10-04T04:58:56;9.80;99.90
52675;DHT22;38569;52.722;6.440;2022-10-04T05:01:34;9.70;99.90
52675;DHT22;38569;52.722;6.440;2022-10-04T05:06:59;9.70;99.90
52675;DHT22;38569;52.722;6.440;2022-10-04T05:09:34;9.70;99.90
52675;DHT22;38569;52.722;6.440;2022-10-04T05:12:07;9.60;99.90
52675;DHT22;38569;52.722;6.440;2022-10-04T05:14:38;9.60;99.90
52675;DHT22;38569;52.722;6.440;2022-10-04T05:17:05;9.50;99.90
52675;DHT22;38569;52.722;6.440;2022-10-04T05:19:35;9.40;99.90
52675;DHT22;38569;52.722;6.440;2022-10-04T05:22:07;9.50;99.90
52675;DHT22;38569;52.722;6.440;2022-10-04T05:24:37;9.50;99.90
52675;DHT22;38569;52.722;6.440;2022-10-04T05:27:23;9.60;99.90
52675;DHT22;38569;52.722;6.440;2022-10-04T05:30:20;9.70;99.90
52675;DHT22;38569;52.722;6.440;2022-10-04T05:35:49;9.70;99.90
52675;DHT22;38569;52.722;6.440;2022-10-04T05:38:31;9.70;99.90
52675;DHT22;38569;52.722;6.440;2022-10-04T05:41:36;9.70;99.90
52675;DHT22;38569;52.722;6.440;2022-10-04T05:44:25;9.60;99.90
52675;DHT22;38569;52.722;6.440;2022-10-04T05:46:55;9.60;99.90
52675;DHT22;38569;52.722;6.440;2022-10-04T05:49:22;9.70;99.90
52675;DHT22;38569;52.722;6.440;2022-10-04T05:51:59;9.60;99.90
52675;DHT22;38569;52.722;6.440;2022-10-04T05:54:30;9.60;99.90
52675;DHT22;38569;52.722;6.440;2022-10-04T05:57:13;9.50;99.90
52675;DHT22;38569;52.722;6.440;2022-10-04T06:00:08;9.50;99.90
52675;DHT22;38569;52.722;6.440;2022-10-04T06:16:47;9.70;99.90
52675;DHT22;38569;52.722;6.440;2022-10-04T06:22:16;9.90;99.90
52675;DHT22;38569;52.722;6.440;2022-10-04T06:24:46;9.90;99.90
52675;DHT22;38569;52.722;6.440;2022-10-04T06:27:35;10.00;99.90
52675;DHT22;38569;52.722;6.440;2022-10-04T06:30:12;10.00;99.90
52675;DHT22;38569;52.722;6.440;2022-10-04T06:35:38;10.00;99.90
52675;DHT22;38569;52.722;6.440;2022-10-04T07:02:49;10.50;99.90
52675;DHT22;38569;52.722;6.440;2022-10-04T07:15:31;11.20;99.90
52675;DHT22;38569;52.722;6.440;2022-10-04T07:18:04;11.30;99.90
52675;DHT22;38569;52.722;6.440;2022-10-04T07:20:33;11.40;99.90
52675;DHT22;38569;52.722;6.440;2022-10-04T07:23:14;11.50;99.90
52675;DHT22;38569;52.722;6.440;2022-10-04T07:25:53;11.50;99.90
52675;DHT22;38569;52.722;6.440;2022-10-04T07:28:26;11.50;99.90
52675;DHT22;38569;52.722;6.440;2022-10-04T07:31:27;11.40;99.90
52675;DHT22;38569;52.722;6.440;2022-10-04T07:34:01;11.40;99.90
52675;DHT22;38569;52.722;6.440;2022-10-04T07:36:47;11.40;99.90
52675;DHT22;38569;52.722;6.440;2022-10-04T07:39:18;11.40;99.90
52675;DHT22;38569;52.722;6.440;2022-10-04T07:41:51;11.40;99.90
52675;DHT22;38569;52.722;6.440;2022-10-04T07:44:35;11.50;99.90
52675;DHT22;38569;52.722;6.440;2022-10-04T07:47:22;11.70;99.90
52675;DHT22;38569;52.722;6.440;2022-10-04T07:49:50;11.90;99.90
52675;DHT22;38569;52.722;6.440;2022-10-04T07:52:44;12.00;99.90
52675;DHT22;38569;52.722;6.440;2022-10-04T07:55:17;12.20;99.90
52675;DHT22;38569;52.722;6.440;2022-10-04T08:09:11;12.40;99.90
52675;DHT22;38569;52.722;6.440;2022-10-04T08:17:43;12.60;99.90
52675;DHT22;38569;52.722;6.440;2022-10-04T08:57:25;14.10;99.90
52675;DHT22;38569;52.722;6.440;2022-10-04T09:03:25;14.20;99.90
52675;DHT22;38569;52.722;6.440;2022-10-04T09:14:55;14.40;99.90
52675;DHT22;38569;52.722;6.440;2022-10-04T09:17:44;14.40;99.90
52675;DHT22;38569;52.722;6.440;2022-10-04T09:25:52;14.70;99.90
52675;DHT22;38569;52.722;6.440;2022-10-04T09:28:59;14.70;99.90
52675;DHT22;38569;52.722;6.440;2022-10-04T09:31:51;14.80;99.90
52675;DHT22;38569;52.722;6.440;2022-10-04T09:46:08;18.30;99.90
52675;DHT22;38569;52.722;6.440;2022-10-04T09:51:55;20.00;99.90
52675;DHT22;38569;52.722;6.440;2022-10-04T10:14:55;23.10;94.50
52675;DHT22;38569;52.722;6.440;2022-10-04T10:17:39;23.20;93.60
52675;DHT22;38569;52.722;6.440;2022-10-04T10:20:40;23.10;95.60
52675;DHT22;38569;52.722;6.440;2022-10-04T10:32:09;23.00;91.90
52675;DHT22;38569;52.722;6.440;2022-10-04T10:44:07;23.90;90.70
52675;DHT22;38569;52.722;6.440;2022-10-04T10:47:14;23.90;89.60
52675;DHT22;38569;52.722;6.440;2022-10-04T11:41:32;23.60;80.80
52675;DHT22;38569;52.722;6.440;2022-10-04T11:55:51;24.10;78.80
52675;DHT22;38569;52.722;6.440;2022-10-04T12:03:40;23.80;79.60
52675;DHT22;38569;52.722;6.440;2022-10-04T12:06:41;23.50;79.50
52675;DHT22;38569;52.722;6.440;2022-10-04T12:10:26;23.20;81.10
52675;DHT22;38569;52.722;6.440;2022-10-04T12:12:39;22.90;81.00
52675;DHT22;38569;52.722;6.440;2022-10-04T12:15:20;22.80;83.70
52675;DHT22;38569;52.722;6.440;2022-10-04T12:32:09;21.80;85.60
52675;DHT22;38569;52.722;6.440;2022-10-04T12:49:40;22.20;83.80
52675;DHT22;38569;52.722;6.440;2022-10-04T12:52:19;22.10;83.90
52675;DHT22;38569;52.722;6.440;2022-10-04T12:54:58;22.10;83.30
52675;DHT22;38569;52.722;6.440;2022-10-04T13:00:21;22.20;83.40
52675;DHT22;38569;52.722;6.440;2022-10-04T13:05:16;21.80;83.90
52675;DHT22;38569;52.722;6.440;2022-10-04T13:13:20;21.30;85.20
52675;DHT22;38569;52.722;6.440;2022-10-04T13:16:09;21.20;86.10
52675;DHT22;38569;52.722;6.440;2022-10-04T13:18:55;21.20;84.80
52675;DHT22;38569;52.722;6.440;2022-10-04T13:24:24;21.50;85.00
52675;DHT22;38569;52.722;6.440;2022-10-04T13:27:11;21.50;84.90
52675;DHT22;38569;52.722;6.440;2022-10-04T13:29:55;21.20;85.80
52675;DHT22;38569;52.722;6.440;2022-10-04T13:32:34;20.60;86.00
52675;DHT22;38569;52.722;6.440;2022-10-04T13:35:35;20.30;88.90
52675;DHT22;38569;52.722;6.440;2022-10-04T13:40:54;20.50;90.80
52675;DHT22;38569;52.722;6.440;2022-10-04T13:49:15;21.30;83.30
52675;DHT22;38569;52.722;6.440;2022-10-04T13:51:45;21.30;84.20
52675;DHT22;38569;52.722;6.440;2022-10-04T13:54:17;21.30;85.30
52675;DHT22;38569;52.722;6.440;2022-10-04T14:00:04;21.30;83.70
52675;DHT22;38569;52.722;6.440;2022-10-04T14:08:31;20.50;85.60
52675;DHT22;38569;52.722;6.440;2022-10-04T14:28:51;20.70;86.30
52675;DHT22;38569;52.722;6.440;2022-10-04T14:34:25;20.70;86.70
52675;DHT22;38569;52.722;6.440;2022-10-04T14:39:58;20.20;89.20
52675;DHT22;38569;52.722;6.440;2022-10-04T14:53:48;20.30;91.90
52675;DHT22;38569;52.722;6.440;2022-10-04T15:01:24;20.40;90.40
52675;DHT22;38569;52.722;6.440;2022-10-04T15:06:50;20.30;88.60
52675;DHT22;38569;52.722;6.440;2022-10-04T15:15:30;20.20;89.40
52675;DHT22;38569;52.722;6.440;2022-10-04T15:18:21;20.10;90.00
52675;DHT22;38569;52.722;6.440;2022-10-04T15:20:59;19.90;90.40
52675;DHT22;38569;52.722;6.440;2022-10-04T15:23:44;19.80;90.70
52675;DHT22;38569;52.722;6.440;2022-10-04T15:31:34;19.30;91.10
52675;DHT22;38569;52.722;6.440;2022-10-04T15:42:13;18.70;93.40
52675;DHT22;38569;52.722;6.440;2022-10-04T16:07:31;18.40;96.30
52675;DHT22;38569;52.722;6.440;2022-10-04T16:10:18;18.30;96.60
52675;DHT22;38569;52.722;6.440;2022-10-04T16:15:39;18.00;98.40
52675;DHT22;38569;52.722;6.440;2022-10-04T16:24:51;17.60;99.90
52675;DHT22;38569;52.722;6.440;2022-10-04T16:27:18;17.50;99.90
52675;DHT22;38569;52.722;6.440;2022-10-04T16:30:24;17.30;99.90
52675;DHT22;38569;52.722;6.440;2022-10-04T16:33:04;17.30;99.90
52675;DHT22;38569;52.722;6.440;2022-10-04T16:35:41;17.20;99.90
52675;DHT22;38569;52.722;6.440;2022-10-04T16:41:05;17.00;99.90
52675;DHT22;38569;52.722;6.440;2022-10-04T16:43:34;16.90;99.90
52675;DHT22;38569;52.722;6.440;2022-10-04T16:46:08;16.80;99.90
52675;DHT22;38569;52.722;6.440;2022-10-04T16:48:53;16.70;99.90
52675;DHT22;38569;52.722;6.440;2022-10-04T16:52:10;16.60;99.90
52675;DHT22;38569;52.722;6.440;2022-10-04T16:54:41;16.50;99.90
52675;DHT22;38569;52.722;6.440;2022-10-04T16:57:20;16.40;99.90
52675;DHT22;38569;52.722;6.440;2022-10-04T17:19:25;16.00;99.90
52675;DHT22;38569;52.722;6.440;2022-10-04T17:25:11;15.90;99.90
52675;DHT22;38569;52.722;6.440;2022-10-04T17:27:58;15.90;99.90
52675;DHT22;38569;52.722;6.440;2022-10-04T17:30:51;15.80;99.90
52675;DHT22;38569;52.722;6.440;2022-10-04T17:33:26;15.80;99.90
52675;DHT22;38569;52.722;6.440;2022-10-04T17:39:09;15.80;99.90
52675;DHT22;38569;52.722;6.440;2022-10-04T17:44:38;15.80;99.90
52675;DHT22;38569;52.722;6.440;2022-10-04T17:52:39;15.80;99.90
52675;DHT22;38569;52.722;6.440;2022-10-04T17:58:36;15.80;99.90
52675;DHT22;38569;52.722;6.440;2022-10-04T18:01:29;15.80;99.90
52675;DHT22;38569;52.722;6.440;2022-10-04T18:04:14;15.90;99.90
52675;DHT22;38569;52.722;6.440;2022-10-04T18:09:39;15.90;99.90
52675;DHT22;38569;52.722;6.440;2022-10-04T18:12:30;15.90;99.90
52675;DHT22;38569;52.722;6.440;2022-10-04T18:15:21;15.90;99.90
52675;DHT22;38569;52.722;6.440;2022-10-04T18:18:05;15.90;99.90
52675;DHT22;38569;52.722;6.440;2022-10-04T18:20:56;15.90;99.90
52675;DHT22;38569;52.722;6.440;2022-10-04T18:23:23;15.90;99.90
52675;DHT22;38569;52.722;6.440;2022-10-04T18:26:15;15.90;99.90
52675;DHT22;38569;52.722;6.440;2022-10-04T18:28:45;16.00;99.90
52675;DHT22;38569;52.722;6.440;2022-10-04T18:31:33;15.90;99.90
52675;DHT22;38569;52.722;6.440;2022-10-04T18:39:20;15.90;99.90
52675;DHT22;38569;52.722;6.440;2022-10-04T18:44:58;15.90;99.90
52675;DHT22;38569;52.722;6.440;2022-10-04T18:49:59;15.90;99.90
52675;DHT22;38569;52.722;6.440;2022-10-04T18:52:53;15.90;99.90
52675;DHT22;38569;52.722;6.440;2022-10-04T18:58:10;15.90;99.90
52675;DHT22;38569;52.722;6.440;2022-10-04T19:01:12;15.90;99.90
52675;DHT22;38569;52.722;6.440;2022-10-04T19:04:02;15.90;99.90
52675;DHT22;38569;52.722;6.440;2022-10-04T19:06:36;15.90;99.90
52675;DHT22;38569;52.722;6.440;2022-10-04T19:11:49;15.90;99.90
52675;DHT22;38569;52.722;6.440;2022-10-04T19:17:28;15.90;99.90
52675;DHT22;38569;52.722;6.440;2022-10-04T19:20:14;15.90;99.90
52675;DHT22;38569;52.722;6.440;2022-10-04T19:23:02;15.90;99.90
52675;DHT22;38569;52.722;6.440;2022-10-04T19:25:36;15.90;99.90
52675;DHT22;38569;52.722;6.440;2022-10-04T19:30:40;15.80;99.90
52675;DHT22;38569;52.722;6.440;2022-10-04T19:36:26;15.90;99.90
52675;DHT22;38569;52.722;6.440;2022-10-04T19:39:14;15.90;99.90
52675;DHT22;38569;52.722;6.440;2022-10-04T19:52:49;15.90;99.90
52675;DHT22;38569;52.722;6.440;2022-10-04T19:55:29;15.90;99.90
52675;DHT22;38569;52.722;6.440;2022-10-04T20:00:38;15.90;99.90
52675;DHT22;38569;52.722;6.440;2022-10-04T20:03:13;15.90;99.90
52675;DHT22;38569;52.722;6.440;2022-10-04T20:05:47;15.90;99.90
52675;DHT22;38569;52.722;6.440;2022-10-04T20:08:15;15.90;99.90
52675;DHT22;38569;52.722;6.440;2022-10-04T20:10:42;15.80;99.90
52675;DHT22;38569;52.722;6.440;2022-10-04T20:13:22;15.80;99.90
52675;DHT22;38569;52.722;6.440;2022-10-04T20:15:55;15.80;99.90
52675;DHT22;38569;52.722;6.440;2022-10-04T20:33:49;15.80;99.90
52675;DHT22;38569;52.722;6.440;2022-10-04T20:38:54;15.80;99.90
52675;DHT22;38569;52.722;6.440;2022-10-04T20:44:53;15.80;99.90
52675;DHT22;38569;52.722;6.440;2022-10-04T20:52:37;15.80;99.90
52675;DHT22;38569;52.722;6.440;2022-10-04T20:56:07;15.80;99.90
52675;DHT22;38569;52.722;6.440;2022-10-04T20:58:20;15.80;99.90
52675;DHT22;38569;52.722;6.440;2022-10-04T21:00:53;15.80;99.90
52675;DHT22;38569;52.722;6.440;2022-10-04T21:03:19;15.80;99.90
52675;DHT22;38569;52.722;6.440;2022-10-04T21:05:59;15.80;99.90
52675;DHT22;38569;52.722;6.440;2022-10-04T21:08:25;15.80;99.90
52675;DHT22;38569;52.722;6.440;2022-10-04T21:16:08;15.90;99.90
52675;DHT22;38569;52.722;6.440;2022-10-04T21:18:34;15.90;99.90
52675;DHT22;38569;52.722;6.440;2022-10-04T21:21:00;15.90;99.90
52675;DHT22;38569;52.722;6.440;2022-10-04T21:23:30;15.90;99.90
52675;DHT22;38569;52.722;6.440;2022-10-04T21:26:23;15.80;99.90
52675;DHT22;38569;52.722;6.440;2022-10-04T21:28:53;15.90;99.90
52675;DHT22;38569;52.722;6.440;2022-10-04T21:31:21;15.80;99.90
52675;DHT22;38569;52.722;6.440;2022-10-04T21:33:47;15.80;99.90
52675;DHT22;38569;52.722;6.440;2022-10-04T21:36:12;15.80;99.90
52675;DHT22;38569;52.722;6.440;2022-10-04T21:38:38;15.80;99.90
52675;DHT22;38569;52.722;6.440;2022-10-04T21:41:04;15.80;99.90
52675;DHT22;38569;52.722;6.440;2022-10-04T21:43:30;15.80;99.90
52675;DHT22;38569;52.722;6.440;2022-10-04T21:45:56;15.80;99.90
52675;DHT22;38569;52.722;6.440;2022-10-04T21:48:22;15.80;99.90
52675;DHT22;38569;52.722;6.440;2022-10-04T21:50:52;15.80;99.90
52675;DHT22;38569;52.722;6.440;2022-10-04T21:53:18;15.80;99.90
52675;DHT22;38569;52.722;6.440;2022-10-04T21:55:44;15.80;99.90
52675;DHT22;38569;52.722;6.440;2022-10-04T21:58:10;15.80;99.90
52675;DHT22;38569;52.722;6.440;2022-10-04T22:00:36;15.80;99.90
52675;DHT22;38569;52.722;6.440;2022-10-04T22:03:02;15.80;99.90
52675;DHT22;38569;52.722;6.440;2022-10-04T22:05:28;15.80;99.90
52675;DHT22;38569;52.722;6.440;2022-10-04T22:07:54;15.80;99.90
52675;DHT22;38569;52.722;6.440;2022-10-04T22:10:19;15.80;99.90
52675;DHT22;38569;52.722;6.440;2022-10-04T22:12:45;15.80;99.90
52675;DHT22;38569;52.722;6.440;2022-10-04T22:15:11;15.80;99.90
52675;DHT22;38569;52.722;6.440;2022-10-04T22:17:37;15.80;99.90
52675;DHT22;38569;52.722;6.440;2022-10-04T22:20:03;15.80;99.90
52675;DHT22;38569;52.722;6.440;2022-10-04T22:22:29;15.80;99.90
52675;DHT22;38569;52.722;6.440;2022-10-04T22:24:56;15.80;99.90
52675;DHT22;38569;52.722;6.440;2022-10-04T22:27:22;15.80;99.90
52675;DHT22;38569;52.722;6.440;2022-10-04T22:29:48;15.80;99.90
52675;DHT22;38569;52.722;6.440;2022-10-04T22:32:26;15.70;99.90
52675;DHT22;38569;52.722;6.440;2022-10-04T22:34:59;15.80;99.90
52675;DHT22;38569;52.722;6.440;2022-10-04T22:37:26;15.80;99.90
52675;DHT22;38569;52.722;6.440;2022-10-04T22:39:54;15.70;99.90
52675;DHT22;38569;52.722;6.440;2022-10-04T22:42:24;15.80;99.90
52675;DHT22;38569;52.722;6.440;2022-10-04T22:44:51;15.80;99.90
52675;DHT22;38569;52.722;6.440;2022-10-04T22:47:16;15.80;99.90
52675;DHT22;38569;52.722;6.440;2022-10-04T22:49:44;15.80;99.90
52675;DHT22;38569;52.722;6.440;2022-10-04T22:52:31;15.80;99.90
52675;DHT22;38569;52.722;6.440;2022-10-04T22:55:00;15.80;99.90
52675;DHT22;38569;52.722;6.440;2022-10-04T22:57:26;15.80;99.90
52675;DHT22;38569;52.722;6.440;2022-10-04T22:59:54;15.80;99.90
52675;DHT22;38569;52.722;6.440;2022-10-04T23:02:22;15.80;99.90
52675;DHT22;38569;52.722;6.440;2022-10-04T23:05:20;15.80;99.90
52675;DHT22;38569;52.722;6.440;2022-10-04T23:07:47;15.80;99.90
52675;DHT22;38569;52.722;6.440;2022-10-04T23:10:15;15.80;99.90
52675;DHT22;38569;52.722;6.440;2022-10-04T23:12:44;15.70;99.90
52675;DHT22;38569;52.722;6.440;2022-10-04T23:15:15;15.70;99.90
52675;DHT22;38569;52.722;6.440;2022-10-04T23:17:41;15.80;99.90
52675;DHT22;38569;52.722;6.440;2022-10-04T23:20:14;15.70;99.90
52675;DHT22;38569;52.722;6.440;2022-10-04T23:22:48;15.70;99.90
52675;DHT22;38569;52.722;6.440;2022-10-04T23:25:27;15.70;99.90
52675;DHT22;38569;52.722;6.440;2022-10-04T23:28:00;15.70;99.90
52675;DHT22;38569;52.722;6.440;2022-10-04T23:30:26;15.70;99.90
52675;DHT22;38569;52.722;6.440;2022-10-04T23:32:56;15.80;99.90
52675;DHT22;38569;52.722;6.440;2022-10-04T23:35:24;15.70;99.90
52675;DHT22;38569;52.722;6.440;2022-10-04T23:37:50;15.70;99.90
52675;DHT22;38569;52.722;6.440;2022-10-04T23:40:20;15.70;99.90
52675;DHT22;38569;52.722;6.440;2022-10-04T23:42:48;15.70;99.90
52675;DHT22;38569;52.722;6.440;2022-10-04T23:45:18;15.70;99.90
52675;DHT22;38569;52.722;6.440;2022-10-04T23:47:44;15.70;99.90
52675;DHT22;38569;52.722;6.440;2022-10-04T23:50:21;15.70;99.90
52675;DHT22;38569;52.722;6.440;2022-10-04T23:52:49;15.70;99.90
52675;DHT22;38569;52.722;6.440;2022-10-04T23:55:19;15.70;99.90
52675;DHT22;38569;52.722;6.440;2022-10-04T23:57:45;15.70;99.90
